METAR Data
IDs: Format: Raw Decoded Include TAF

Data at: 1733 UTC 03 Jun 2020

METAR for:KJAX (Jacksonville Intl, FL, US)
Text:KJAX 031656Z 36005KT 10SM FEW035 OVC250 29/16 A3006 RMK AO2 SLP180 T02890161
Temperature: 28.9°C ( 84°F)
Dewpoint: 16.1°C ( 61°F) [RH = 46%]
Pressure (altimeter):30.06 inches Hg (1018.0 mb) [Sea level pressure: 1018.0 mb]
Winds:from the N (360 degrees) at 6 MPH (5 knots; 2.6 m/s)
Visibility:10 or more sm (16+ km)
Ceiling:25000 feet AGL
Clouds: few clouds at 3500 feet AGL, overcast cloud deck at 25000 feet AGL

METAR for:KCRG (Jacksonville/Executi, FL, US)
Text:KCRG 031653Z VRB03KT 10SM BKN040 27/18 A3007 RMK AO2 SLP181 T02670178
Temperature: 26.7°C ( 80°F)
Dewpoint: 17.8°C ( 64°F) [RH = 58%]
Pressure (altimeter):30.07 inches Hg (1018.4 mb) [Sea level pressure: 1018.1 mb]
Winds:variable direction winds at 3 MPH (3 knots; 1.5 m/s)
Visibility:10 or more sm (16+ km)
Ceiling:4000 feet AGL
Clouds: broken clouds at 4000 feet AGL

METAR for:KNIP (Jacksonville (NAS), FL, US)
Text:KNIP 031653Z 00000KT 10SM SCT035 OVC250 28/16 A3007 RMK AO2 SLP179 T02830161
Temperature: 28.3°C ( 83°F)
Dewpoint: 16.1°C ( 61°F) [RH = 48%]
Pressure (altimeter):30.07 inches Hg (1018.4 mb) [Sea level pressure: 1017.9 mb]
Winds:calm
Visibility:10 or more sm (16+ km)
Ceiling:25000 feet AGL
Clouds: scattered clouds at 3500 feet AGL, overcast cloud deck at 25000 feet AGL

METAR for:KNRB (Mayport (NS), FL, US)
Text:KNRB 031652Z 08008KT 10SM SCT030 OVC250 27/18 A3007 RMK AO2 SLP183 T02720178
Temperature: 27.2°C ( 81°F)
Dewpoint: 17.8°C ( 64°F) [RH = 57%]
Pressure (altimeter):30.07 inches Hg (1018.4 mb) [Sea level pressure: 1018.3 mb]
Winds:from the E (80 degrees) at 9 MPH (8 knots; 4.1 m/s)
Visibility:10 or more sm (16+ km)
Ceiling:25000 feet AGL
Clouds: scattered clouds at 3000 feet AGL, overcast cloud deck at 25000 feet AGL

METAR for:KFHB (Fernandina Beach Mun, FL, US)
Text:KFHB 031715Z AUTO 13007KT 10SM CLR 27/18 A3007 RMK AO2 T02660185
Temperature: 26.6°C ( 80°F)
Dewpoint: 18.5°C ( 65°F) [RH = 61%]
Pressure (altimeter):30.07 inches Hg (1018.4 mb)
Winds:from the SE (130 degrees) at 8 MPH (7 knots; 3.6 m/s)
Visibility:10 or more sm (16+ km)
Ceiling:at least 12,000 feet AGL
Clouds:sky clear below 12,000 feet AGL
QC Flag:automated observation with no human augmentation

METAR for:KVQQ (Jacksonville/Cecil A, FL, US)
Text:KVQQ 031650Z 06008KT 10SM SCT044 29/16 A3007
Temperature: 29.0°C ( 84°F)
Dewpoint: 16.0°C ( 61°F) [RH = 45%]
Pressure (altimeter):30.07 inches Hg (1018.4 mb)
Winds:from the ENE (60 degrees) at 9 MPH (8 knots; 4.1 m/s)
Visibility:10 or more sm (16+ km)
Ceiling:at least 12,000 feet AGL
Clouds: scattered clouds at 4400 feet AGL